Latest Weather Observations for Orbost

IDV60801

Issued at 5:35 pm EST Friday 1 August 2014 (issued every 30 minutes, with the page automatically refreshed every 10 minutes)

About weather observations | Map of weather stations | Latest weather observations for VIC | Other Formats
Station Details ID: 084145 Name: ORBOST Lat: -37.69 Lon: 148.47 Height: 62.65 m
Data from the previous 72 hours. | See also: Recent months at Orbost
Date/Time
EST
Temp
°C
App
Temp
°C
Dew
Point
Rel
Hum
%
Delta-T
°C
Wind Press
QNH
hPa
Press
MSL
hPa
Rain
since 9 am
mm
Dir
 
Spd
km/h
Gust
km/h
Spd
kts
Gust
kts
01/05:30pm 6.6 3.3 2.5 75 1.7 NW 9 13 5 7 1009.1 - 0.4
01/05:00pm 7.3 3.3 3.0 74 1.8 NW 13 20 7 11 1008.1 1008.1 0.4
01/04:30pm 7.5 0.8 3.6 76 1.7 W 28 43 15 23 1007.5 - 0.2
01/04:27pm 7.4 -0.1 3.6 77 1.6 W 32 52 17 28 1007.5 - 0.2
01/04:15pm 9.1 0.3 1.5 59 3.1 WSW 37 50 20 27 1006.6 - 0.2
01/04:13pm 9.9 2.7 0.8 53 3.7 W 28 48 15 26 1006.4 - 0.2
01/04:00pm 11.6 5.9 -0.9 42 5.0 WNW 19 33 10 18 1005.5 1005.6 0.2
01/03:30pm 12.6 6.6 -1.7 37 5.7 W 20 37 11 20 1004.6 - 0.2
01/03:00pm 13.7 9.0 1.0 42 5.5 NW 15 26 8 14 1004.0 1004.1 0.2
01/02:30pm 13.4 7.0 0.8 42 5.3 NW 24 37 13 20 1003.5 - 0.0
01/02:00pm 12.6 5.2 -0.6 40 5.4 NW 28 43 15 23 1003.0 1003.1 0.0
01/01:30pm 13.0 6.0 -0.6 39 5.6 NW 26 39 14 21 1002.6 - 0.0
01/01:06pm 12.9 5.4 -1.1 38 5.7 NW 28 50 15 27 1002.5 - 0.0
01/01:00pm 13.2 6.1 -1.2 37 5.9 NW 26 41 14 22 1002.3 1002.4 0.0
01/12:30pm 12.9 5.0 -1.4 37 5.8 NW 30 52 16 28 1002.0 - 0.0
01/12:00pm 12.8 4.6 -1.1 38 5.7 NW 32 56 17 30 1002.3 1002.4 0.0
01/11:54am 12.8 5.3 -1.5 37 5.7 NW 28 48 15 26 1002.2 - 0.0
01/11:30am 12.8 5.8 -0.4 40 5.4 NW 26 41 14 22 1002.5 - 0.0
01/11:00am 12.2 5.8 -1.7 38 5.5 NW 22 37 12 20 1002.4 1002.5 0.0
01/10:30am 12.1 7.6 -0.1 43 5.0 NW 13 20 7 11 1002.6 - 0.0
01/10:00am 10.9 5.6 -0.9 44 4.7 NW 17 26 9 14 1002.5 1002.6 0.0
01/09:30am 10.0 4.7 -0.8 47 4.3 NNW 17 28 9 15 1002.5 - 0.0
01/09:00am 9.4 4.5 -0.5 50 3.9 NNW 15 22 8 12 1002.7 1002.8 4.2
01/08:30am 8.7 3.7 -1.1 50 3.8 NNW 15 22 8 12 1002.7 - 4.2
01/08:00am 7.5 2.5 -0.9 55 3.2 NNW 15 22 8 12 1002.6 1002.7 4.2
01/07:30am 6.7 1.8 -0.5 60 2.8 NNW 15 20 8 11 1002.6 - 4.2
01/07:00am 5.8 1.5 1.2 72 1.8 NNW 13 19 7 10 1002.7 1002.8 4.2
01/06:30am 5.1 1.5 0.7 73 1.7 N 9 13 5 7 1002.3 - 4.2
01/06:00am 5.8 2.4 1.9 76 1.6 NW 9 17 5 9 1002.1 1002.2 4.2
01/05:30am 4.6 1.6 2.0 83 1.0 NW 7 11 4 6 1002.2 - 4.2
01/05:00am 5.8 3.0 3.0 82 1.2 W 7 9 4 5 1002.1 1002.2 4.2
01/04:30am 5.8 3.0 3.3 84 1.0 W 7 15 4 8 1001.3 - 4.2
01/04:00am 7.0 2.0 3.8 80 1.4 NNW 19 26 10 14 1000.4 1000.5 4.2
01/03:30am 6.6 2.1 4.1 84 1.1 N 17 24 9 13 1000.9 - 4.2
01/03:00am 6.6 3.3 4.3 85 1.0 NW 11 15 6 8 1001.4 1001.5 4.2
01/02:30am 6.8 3.8 4.1 83 1.2 NW 9 15 5 8 1001.8 - 4.2
01/02:00am 7.1 2.9 3.7 79 1.5 NW 15 26 8 14 1001.5 1001.6 4.2
01/01:30am 6.8 2.7 4.1 83 1.2 NNW 15 20 8 11 1001.7 - 4.2
01/01:00am 6.6 2.9 4.3 85 1.0 NW 13 24 7 13 1002.2 1002.3 4.2
01/12:30am 6.3 3.0 4.5 88 0.8 NW 11 20 6 11 1002.3 - 3.6
01/12:00am 5.9 2.7 4.9 93 0.4 NW 11 20 6 11 1002.5 1002.6 2.6
 
Date/Time
EST
Temp
°C
App
Temp
°C
Dew
Point
Rel
Hum
%
Delta-T
°C
Wind Press
QNH
hPa
Press
MSL
hPa
Rain
since 9 am
mm
Dir
 
Spd
km/h
Gust
km/h
Spd
kts
Gust
kts
31/11:30pm 6.1 2.8 4.4 89 0.7 WNW 11 19 6 10 1002.1 - 1.0
31/11:00pm 6.5 3.4 3.8 83 1.2 W 9 20 5 11 1002.4 1002.5 0.0
31/10:30pm 7.1 3.6 3.3 77 1.6 W 11 19 6 10 1002.1 - 0.0
31/10:00pm 8.0 4.5 3.7 74 1.9 W 11 19 6 10 1002.0 1002.1 0.0
31/09:30pm 8.3 2.4 4.1 75 1.8 WSW 24 35 13 19 1001.4 - 0.0
31/09:00pm 8.6 2.7 4.0 73 2.0 WSW 24 35 13 19 1000.2 1000.3 0.0
31/08:30pm 8.9 4.8 4.5 74 1.9 WSW 15 24 8 13 999.7 - 0.0
31/08:00pm 9.6 4.7 5.0 73 2.1 WSW 20 33 11 18 999.4 999.5 0.0
31/07:30pm 10.3 7.1 6.8 79 1.7 WSW 13 22 7 12 998.8 - 0.0
31/07:00pm 12.0 5.1 6.3 68 2.7 SW 32 56 17 30 997.8 997.8 0.0
31/06:59pm 12.3 4.7 5.9 65 3.0 SW 35 56 19 30 997.7 - 0.0
31/06:58pm 13.5 4.9 4.9 56 4.0 SW 39 56 21 30 997.7 - 0.0
31/06:30pm 19.1 10.3 1.6 31 7.9 NW 37 61 20 33 995.9 - 0.0
31/06:00pm 18.6 11.2 1.6 32 7.8 NW 30 56 16 30 995.3 995.3 0.0
31/05:30pm 18.7 10.7 1.7 32 7.7 NW 33 54 18 29 994.8 - 0.0
31/05:00pm 19.3 9.3 1.3 30 8.2 NW 43 67 23 36 994.2 994.2 0.0
31/04:30pm 19.4 9.9 1.9 31 8.0 NW 41 63 22 34 993.9 - 0.0
31/04:01pm 20.0 9.0 1.0 28 8.6 NW 48 67 26 36 993.6 - 0.0
31/04:00pm 20.1 8.4 1.0 28 8.7 NW 52 67 28 36 993.7 993.7 0.0
31/03:30pm 20.5 13.0 1.4 28 8.7 NW 30 54 16 29 993.9 - 0.0
31/03:00pm 20.7 11.5 1.1 27 9.0 NW 39 67 21 36 993.6 993.6 0.0
31/02:30pm 21.0 12.2 1.3 27 9.0 NW 37 59 20 32 994.1 - 0.0
31/02:24pm 21.0 13.9 1.3 27 9.0 NW 28 50 15 27 994.2 - 0.0
31/02:00pm 21.2 14.7 2.5 29 8.9 NW 26 41 14 22 994.6 994.6 0.0
31/01:38pm 21.1 14.1 1.9 28 8.9 NW 28 46 15 25 995.0 - 0.0
31/01:30pm 21.3 14.8 2.6 29 8.8 NNW 26 41 14 22 995.0 - 0.0
31/01:07pm 21.1 14.3 3.3 31 8.5 NNW 28 54 15 29 995.6 - 0.0
31/01:00pm 21.1 14.7 3.3 31 8.6 NW 26 50 14 27 995.6 995.6 0.0
31/12:30pm 20.7 13.8 2.5 30 8.5 NNW 28 48 15 26 996.8 - 0.0
31/12:01pm 21.0 14.1 2.8 30 8.6 NNW 28 52 15 28 997.5 - 0.0
31/12:00pm 20.8 14.0 3.1 31 8.5 NNW 28 43 15 23 997.5 997.5 0.0
31/11:30am 20.8 15.7 3.1 31 8.4 NW 19 33 10 18 998.4 - 0.0
31/11:14am 20.5 13.6 2.3 30 8.5 NW 28 48 15 26 998.8 - 0.0
31/11:00am 20.6 14.4 2.4 30 8.6 NW 24 43 13 23 999.2 999.3 0.0
31/10:30am 20.4 15.4 4.4 35 7.8 NW 20 35 11 19 1000.4 - 0.0
31/10:00am 20.1 16.8 4.6 36 7.6 NW 11 28 6 15 1000.9 1001.0 0.0
31/09:30am 19.4 16.1 4.4 37 7.2 NNW 11 22 6 12 1001.5 - 0.0
31/09:00am 18.8 14.7 4.6 39 6.9 NNW 15 30 8 16 1001.8 1001.9 0.0
31/08:30am 17.9 14.3 4.8 42 6.3 NNW 13 22 7 12 1002.4 - 0.0
31/08:00am 16.8 14.0 5.1 46 5.6 N 9 26 5 14 1003.0 1003.1 0.0
31/07:30am 15.5 12.7 5.1 50 4.9 N 9 15 5 8 1003.4 - 0.0
31/07:00am 16.5 12.6 5.2 47 5.4 NNW 15 24 8 13 1003.7 1003.8 0.0
31/06:30am 16.4 12.5 5.4 48 5.3 NW 15 30 8 16 1003.7 - 0.0
31/06:00am 15.1 12.8 5.6 53 4.6 NW 7 19 4 10 1003.9 1004.0 0.0
31/05:30am 13.2 11.1 4.1 54 4.1 ENE 4 11 2 6 1004.4 - 0.0
31/05:00am 13.5 11.0 4.6 55 4.1 NNE 7 9 4 5 1004.6 1004.7 0.0
31/04:30am 13.9 11.9 4.2 52 4.5 ENE 4 6 2 3 1004.8 - 0.0
31/04:00am 13.9 11.5 4.5 53 4.4 N 6 7 3 4 1005.4 1005.5 0.0
31/03:30am 14.5 11.5 4.2 50 4.8 NNW 9 15 5 8 1005.9 - 0.0
31/03:00am 15.3 12.0 4.7 49 5.0 NNW 11 17 6 9 1006.5 1006.6 0.0
31/02:30am 15.5 12.3 5.1 50 4.9 NNW 11 17 6 9 1006.8 - 0.0
31/02:00am 15.4 12.6 5.3 51 4.8 NW 9 15 5 8 1007.4 1007.4 0.0
31/01:30am 16.1 12.9 5.1 48 5.2 WNW 11 19 6 10 1007.7 - 0.0
31/01:00am 15.8 12.9 4.8 48 5.2 NW 9 17 5 9 1007.9 1007.9 0.0
31/12:30am 16.5 12.6 5.2 47 5.4 NW 15 22 8 12 1007.9 - 0.0
31/12:00am 15.7 12.2 5.3 50 5.0 NW 13 19 7 10 1008.1 1008.1 0.0
 
Date/Time
EST
Temp
°C
App
Temp
°C
Dew
Point
Rel
Hum
%
Delta-T
°C
Wind Press
QNH
hPa
Press
MSL
hPa
Rain
since 9 am
mm
Dir
 
Spd
km/h
Gust
km/h
Spd
kts
Gust
kts
30/11:30pm 15.9 12.3 5.2 49 5.1 NW 13 22 7 12 1008.5 - 0.0
30/11:00pm 15.5 12.0 5.4 51 4.8 NW 13 20 7 11 1008.7 1008.7 0.0
30/10:30pm 15.2 12.6 6.0 54 4.4 NW 9 17 5 9 1008.6 - 0.0
30/10:00pm 14.7 12.4 5.8 55 4.3 NW 7 11 4 6 1008.7 1008.7 0.0
30/09:30pm 14.8 11.8 6.1 56 4.2 NNW 11 19 6 10 1008.7 - 0.0
30/09:00pm 13.4 11.3 6.5 63 3.3 N 7 11 4 6 1008.9 1008.9 0.0
30/08:30pm 14.2 12.2 6.3 59 3.8 NW 6 9 3 5 1009.4 - 0.0
30/08:00pm 15.8 12.5 6.5 54 4.6 NNW 13 19 7 10 1009.6 1009.6 0.0
30/07:30pm 16.7 12.1 6.5 51 5.0 NNW 20 28 11 15 1009.6 - 0.0
30/07:00pm 16.9 12.5 6.7 51 5.1 NNW 19 41 10 22 1009.7 1009.7 0.0
30/06:30pm 16.9 12.9 6.7 51 5.0 NNW 17 24 9 13 1009.6 - 0.0
30/06:00pm 16.5 13.3 6.9 53 4.8 NNW 13 20 7 11 1009.6 1009.6 0.0
30/05:30pm 17.2 14.0 7.0 51 5.1 NW 13 22 7 12 1009.2 - 0.0
30/05:00pm 18.1 13.8 7.2 49 5.5 NW 19 33 10 18 1008.9 1008.9 0.0
30/04:30pm 18.6 14.8 7.4 48 5.7 NW 17 22 9 12 1008.9 - 0.0
30/04:00pm 19.3 14.1 7.4 46 6.1 NW 24 41 13 22 1008.9 1008.9 0.0
30/03:30pm 19.6 14.1 7.7 46 6.1 NW 26 39 14 21 1008.8 - 0.0
30/03:00pm 20.1 16.1 8.1 46 6.2 NW 19 33 10 18 1008.7 1008.7 0.0
30/02:30pm 19.9 15.7 8.3 47 6.0 WNW 20 33 11 18 1009.1 - 0.0
30/02:00pm 19.9 17.6 8.9 49 5.8 WNW 11 19 6 10 1009.2 1009.2 0.0
30/01:30pm 19.0 16.5 8.4 50 5.5 WNW 11 19 6 10 1009.5 - 0.0
30/01:00pm 21.0 17.0 8.3 44 6.7 NW 19 30 10 16 1009.7 1009.7 0.0
30/12:30pm 21.0 17.0 8.3 44 6.7 NW 19 32 10 17 1010.0 - 0.0
30/12:00pm 20.2 16.6 8.2 46 6.3 WNW 17 30 9 16 1010.2 1010.2 0.0
30/11:30am 20.0 16.1 8.7 48 5.9 WNW 19 28 10 15 1010.7 - 0.0
30/11:00am 19.6 16.7 8.3 48 5.9 WNW 13 24 7 13 1011.1 1011.1 0.0
30/10:30am 19.5 16.7 8.5 49 5.7 NW 13 22 7 12 1011.2 - 0.0
30/10:00am 18.5 17.0 9.0 54 5.0 NW 7 11 4 6 1011.2 1011.2 0.0
30/09:30am 17.5 16.6 9.2 58 4.3 WNW 4 7 2 4 1011.1 - 0.0
30/09:00am 16.6 14.5 8.3 58 4.2 NW 9 13 5 7 1011.1 1011.1 0.0
30/08:30am 14.4 13.7 8.4 67 3.0 N 2 6 1 3 1011.1 - 0.0
30/08:00am 12.4 11.8 7.5 72 2.4 CALM 0 0 0 0 1011.0 1011.0 0.0
30/07:30am 12.2 11.1 7.1 71 2.5 ESE 2 4 1 2 1010.9 - 0.0
30/07:00am 13.1 12.0 7.1 67 2.9 SSE 2 6 1 3 1010.6 1010.6 0.0
30/06:30am 12.6 10.6 6.9 68 2.7 SW 7 11 4 6 1010.3 - 0.0
30/06:00am 15.4 12.7 7.4 59 4.0 NW 11 22 6 12 1009.8 1009.8 0.0
30/05:30am 14.2 12.4 7.0 62 3.5 WNW 6 9 3 5 1009.5 - 0.0
30/05:00am 14.8 13.0 7.1 60 3.8 WNW 6 7 3 4 1009.3 1009.3 0.0
30/04:30am 15.0 13.2 7.1 59 3.9 WNW 6 9 3 5 1009.2 - 0.0
30/04:00am 16.1 12.9 6.8 54 4.6 NW 13 26 7 14 1009.0 1009.0 0.0
30/03:30am 16.4 12.4 6.8 53 4.7 NW 17 30 9 16 1009.0 - 0.0
30/03:00am 16.4 12.1 6.8 53 4.8 NW 19 30 10 16 1008.7 1008.7 0.0
30/02:30am 16.4 12.4 6.8 53 4.7 NW 17 30 9 16 1008.7 - 0.0
30/02:00am 16.4 12.8 6.8 53 4.8 NW 15 26 8 14 1008.6 1008.6 0.0
30/01:30am 16.6 12.6 6.7 52 4.9 NW 17 30 9 16 1008.2 - 0.0
30/01:00am 16.2 12.6 6.6 53 4.7 NW 15 24 8 13 1008.3 1008.3 0.0
30/12:30am 16.5 11.5 6.6 52 4.9 NW 22 33 12 18 1008.2 - 0.0
30/12:00am 16.6 10.5 6.4 51 5.0 NW 28 48 15 26 1008.0 1008.0 0.0
 
Date/Time
EST
Temp
°C
App
Temp
°C
Dew
Point
Rel
Hum
%
Delta-T
°C
Wind Press
QNH
hPa
Press
MSL
hPa
Rain
since 9 am
mm
Dir
 
Spd
km/h
Gust
km/h
Spd
kts
Gust
kts
29/11:30pm 17.0 10.4 6.2 49 5.3 NW 30 50 16 27 1007.9 - 0.0
29/11:01pm 17.1 10.9 6.0 48 5.4 NW 28 48 15 26 1007.8 - 0.0
29/11:00pm 16.9 11.0 5.8 48 5.4 NW 26 48 14 26 1007.9 1007.9 0.0
29/10:47pm 17.1 10.9 6.0 48 5.4 NW 28 54 15 29 1007.8 - 0.0
29/10:30pm 16.9 11.8 5.8 48 5.4 NW 22 41 12 22 1007.9 - 0.0
29/10:00pm 16.4 11.2 5.4 48 5.3 NW 22 35 12 19 1007.9 1007.9 0.0
29/09:30pm 16.9 11.3 5.5 47 5.5 NW 24 43 13 23 1007.9 - 0.0
29/09:00pm 16.8 12.0 5.4 47 5.5 NW 20 33 11 18 1008.6 1008.6 0.0
29/08:30pm 16.5 11.3 5.5 48 5.3 NW 22 37 12 20 1008.2 - 0.0
29/08:00pm 17.0 11.8 5.3 46 5.6 NW 22 48 12 26 1007.4 1007.4 0.0
29/07:30pm 16.4 12.1 5.4 48 5.3 NW 17 28 9 15 1007.7 - 0.0
29/07:00pm 17.0 11.4 5.6 47 5.5 NNW 24 46 13 25 1006.9 1007.0 0.0
29/06:30pm 16.8 11.3 5.7 48 5.4 NW 24 39 13 21 1007.2 - 0.0
29/06:00pm 16.5 12.6 5.5 48 5.3 NW 15 22 8 12 1007.2 1007.3 0.0

Other Formats:

Comma delimited format used in spreadsheet applications
http://www.bom.gov.au/fwo/IDV60801/IDV60801.95918.axf

JavaScript Object Notation format (JSON) in row-major order
http://www.bom.gov.au/fwo/IDV60801/IDV60801.95918.json